createdAt,value
2023-04-11T00:00:29.778Z,93.90
2023-04-11T00:01:02.260Z,94.11
2023-04-11T00:01:34.782Z,94.11
2023-04-11T00:02:07.289Z,94.11
2023-04-11T00:02:39.768Z,94.11
2023-04-11T00:03:12.303Z,94.11
2023-04-11T00:03:44.836Z,94.11
2023-04-11T00:04:17.262Z,94.11
2023-04-11T00:04:49.724Z,94.11
2023-04-11T00:05:22.145Z,93.70
2023-04-11T00:05:54.659Z,93.70
2023-04-11T00:06:27.156Z,93.60
2023-04-11T00:06:59.664Z,93.70
2023-04-11T00:07:32.148Z,93.90
2023-04-11T00:08:04.637Z,93.60
2023-04-11T00:08:37.100Z,93.60
2023-04-11T00:09:09.602Z,94.01
2023-04-11T00:09:42.130Z,93.80
2023-04-11T00:10:14.624Z,93.90
2023-04-11T00:10:47.115Z,93.90
2023-04-11T00:11:19.593Z,93.90
2023-04-11T00:11:52.066Z,94.11
2023-04-11T00:12:24.527Z,93.70
2023-04-11T00:12:57.059Z,93.80
2023-04-11T00:13:29.545Z,93.90
2023-04-11T00:14:02.059Z,94.21
2023-04-11T00:14:34.535Z,94.11
2023-04-11T00:15:07.003Z,94.01
2023-04-11T00:15:39.495Z,94.21
2023-04-11T00:16:11.944Z,94.01
2023-04-11T00:16:44.465Z,93.80
2023-04-11T00:17:16.933Z,94.01
2023-04-11T00:17:49.447Z,94.01
2023-04-11T00:18:21.878Z,93.80
2023-04-11T00:18:54.644Z,93.80
2023-04-11T00:19:26.874Z,93.70
2023-04-11T00:19:59.330Z,93.70
2023-04-11T00:20:31.820Z,93.90
2023-04-11T00:21:04.293Z,93.90
2023-04-11T00:21:36.801Z,93.70
2023-04-11T00:22:09.270Z,93.70
2023-04-11T00:22:41.718Z,93.90
2023-04-11T00:23:14.184Z,93.80
2023-04-11T00:23:46.671Z,93.80
2023-04-11T00:24:19.145Z,93.70
2023-04-11T00:24:51.609Z,93.70
2023-04-11T00:25:24.106Z,93.60
2023-04-11T00:25:56.638Z,93.80
2023-04-11T00:26:29.098Z,94.01
2023-04-11T00:27:01.584Z,93.60
2023-04-11T00:27:34.088Z,93.60
2023-04-11T00:28:06.577Z,93.80
2023-04-11T00:28:39.035Z,93.80
2023-04-11T00:29:11.499Z,93.60
2023-04-11T00:29:43.987Z,93.70
2023-04-11T00:30:16.433Z,93.60
2023-04-11T00:30:48.905Z,93.80
2023-04-11T00:31:21.515Z,93.90
2023-04-11T00:31:53.914Z,94.01
2023-04-11T00:32:26.435Z,94.21
2023-04-11T00:32:58.923Z,94.52
2023-04-11T00:33:31.354Z,94.21
2023-04-11T00:34:03.803Z,94.11
2023-04-11T00:34:36.309Z,94.01
2023-04-11T00:35:08.834Z,94.11
2023-04-11T00:35:41.229Z,93.90
2023-04-11T00:36:13.797Z,94.01
2023-04-11T00:36:46.306Z,93.90
2023-04-11T00:37:18.729Z,94.01
2023-04-11T00:37:51.215Z,93.80
2023-04-11T00:38:23.699Z,94.11
2023-04-11T00:38:56.358Z,94.11
2023-04-11T00:39:28.685Z,94.01
2023-04-11T00:40:01.206Z,93.90
2023-04-11T00:40:33.602Z,93.90
2023-04-11T00:41:06.082Z,93.60
2023-04-11T00:41:38.563Z,93.70
2023-04-11T00:42:11.016Z,93.90
2023-04-11T00:42:43.585Z,93.90
2023-04-11T00:43:16.063Z,93.60
2023-04-11T00:43:48.517Z,93.80
2023-04-11T00:44:20.991Z,94.01
2023-04-11T00:44:53.459Z,93.90
2023-04-11T00:45:25.918Z,94.01
2023-04-11T00:45:58.439Z,94.01
2023-04-11T00:46:30.869Z,94.11
2023-04-11T00:47:03.360Z,94.11
2023-04-11T00:47:35.878Z,94.11
2023-04-11T00:48:08.405Z,94.32
2023-04-11T00:48:40.809Z,94.42
2023-04-11T00:49:13.295Z,94.32
2023-04-11T00:49:45.774Z,94.42
2023-04-11T00:50:18.302Z,94.42
2023-04-11T00:50:50.831Z,94.52
2023-04-11T00:51:23.289Z,94.62
2023-04-11T00:51:55.765Z,94.62
2023-04-11T00:52:28.281Z,94.83
2023-04-11T00:53:00.787Z,94.62
2023-04-11T00:53:33.292Z,94.62
2023-04-11T00:54:05.748Z,94.62
2023-04-11T00:54:38.225Z,94.62
2023-04-11T00:55:10.692Z,94.62
2023-04-11T00:55:43.176Z,94.62
2023-04-11T00:56:15.662Z,94.73
2023-04-11T00:56:48.162Z,94.83
2023-04-11T00:57:20.609Z,94.83
2023-04-11T00:57:53.128Z,94.73
2023-04-11T00:58:25.585Z,94.93
2023-04-11T00:58:58.058Z,94.73
2023-04-11T00:59:30.545Z,94.73
2023-04-11T01:00:03.087Z,95.03
2023-04-11T01:00:35.537Z,94.73
2023-04-11T01:01:08.019Z,94.73
2023-04-11T01:01:40.530Z,94.83
2023-04-11T01:02:13.021Z,94.62
2023-04-11T01:02:45.591Z,94.62
2023-04-11T01:03:18.124Z,94.32
2023-04-11T01:03:50.499Z,94.42
2023-04-11T01:04:22.845Z,94.52
2023-04-11T01:04:55.317Z,94.52
2023-04-11T01:05:27.784Z,94.62
2023-04-11T01:06:00.258Z,94.73
2023-04-11T01:06:32.751Z,94.62
2023-04-11T01:07:05.208Z,94.73
2023-04-11T01:07:37.730Z,94.62
2023-04-11T01:08:10.192Z,94.83
2023-04-11T01:08:42.685Z,94.73
2023-04-11T01:09:15.166Z,94.73
2023-04-11T01:09:47.696Z,94.52
2023-04-11T01:10:20.169Z,94.32
2023-04-11T01:10:52.650Z,94.32
2023-04-11T01:11:25.131Z,94.42
2023-04-11T01:11:57.674Z,94.52
2023-04-11T01:12:30.206Z,94.32
2023-04-11T01:13:02.708Z,94.32
2023-04-11T01:13:35.160Z,94.21
2023-04-11T01:14:07.715Z,94.21
2023-04-11T01:14:40.152Z,94.21
2023-04-11T01:15:12.629Z,94.11
2023-04-11T01:15:45.142Z,94.01
2023-04-11T01:16:17.731Z,94.11
2023-04-11T01:16:50.159Z,94.07
2023-04-11T01:17:22.687Z,94.17
2023-04-11T01:17:55.092Z,94.17
2023-04-11T01:18:27.547Z,94.37
2023-04-11T01:19:00.052Z,94.17
2023-04-11T01:19:32.525Z,94.07
2023-04-11T01:20:05.017Z,94.07
2023-04-11T01:20:37.473Z,94.17
2023-04-11T01:21:09.979Z,94.27
2023-04-11T01:21:42.459Z,94.07
2023-04-11T01:22:14.961Z,93.96
2023-04-11T01:22:47.463Z,93.86
2023-04-11T01:23:19.908Z,93.76
2023-04-11T01:23:52.394Z,93.96
2023-04-11T01:24:24.888Z,93.86
2023-04-11T01:24:57.399Z,93.86
2023-04-11T01:25:29.864Z,93.55
2023-04-11T01:26:02.381Z,93.35
2023-04-11T01:26:34.855Z,93.66
2023-04-11T01:27:07.365Z,93.86
2023-04-11T01:27:39.872Z,93.86
2023-04-11T01:28:12.292Z,93.76
2023-04-11T01:28:44.766Z,93.55
2023-04-11T01:29:17.304Z,93.55
2023-04-11T01:29:49.801Z,93.76
2023-04-11T01:30:22.293Z,93.35
2023-04-11T01:30:54.829Z,93.15
2023-04-11T01:31:27.258Z,93.15
2023-04-11T01:31:59.760Z,93.29
2023-04-11T01:32:32.283Z,93.19
2023-04-11T01:33:04.772Z,93.29
2023-04-11T01:33:37.178Z,93.49
2023-04-11T01:34:09.693Z,92.98
2023-04-11T01:34:42.197Z,92.98
2023-04-11T01:35:14.656Z,93.08
2023-04-11T01:35:47.177Z,93.29
2023-04-11T01:36:19.642Z,93.29
2023-04-11T01:36:52.142Z,93.49
2023-04-11T01:37:24.585Z,93.70
2023-04-11T01:37:57.069Z,93.60
2023-04-11T01:38:29.539Z,93.60
2023-04-11T01:39:02.038Z,93.49
2023-04-11T01:39:34.509Z,93.49
2023-04-11T01:40:07.001Z,93.39
2023-04-11T01:40:39.460Z,93.39
2023-04-11T01:41:11.926Z,93.54
2023-04-11T01:41:44.408Z,93.85
2023-04-11T01:42:16.877Z,94.05
2023-04-11T01:42:49.380Z,94.05
2023-04-11T01:43:21.837Z,94.15
2023-04-11T01:43:54.368Z,94.15
2023-04-11T01:44:26.819Z,94.05
2023-04-11T01:44:59.305Z,93.95
2023-04-11T01:45:31.804Z,94.05
2023-04-11T01:46:04.319Z,94.15
2023-04-11T01:46:36.784Z,94.26
2023-04-11T01:47:09.284Z,94.05
2023-04-11T01:47:41.822Z,93.95
2023-04-11T01:48:14.368Z,94.15
2023-04-11T01:48:46.785Z,94.26
2023-04-11T01:49:19.220Z,94.36
2023-04-11T01:49:51.709Z,94.46
2023-04-11T01:50:24.166Z,94.56
2023-04-11T01:50:56.632Z,94.56
2023-04-11T01:51:29.126Z,94.87
2023-04-11T01:52:01.602Z,94.98
2023-04-11T01:52:34.115Z,95.12
2023-04-11T01:53:06.574Z,94.81
2023-04-11T01:53:39.052Z,94.51
2023-04-11T01:54:11.543Z,94.61
2023-04-11T01:54:44.057Z,94.61
2023-04-11T01:55:16.513Z,94.71
2023-04-11T01:55:48.995Z,94.46
2023-04-11T01:56:21.507Z,94.46
2023-04-11T01:56:53.996Z,94.46
2023-04-11T01:57:26.446Z,94.56
2023-04-11T01:57:58.921Z,94.36
2023-04-11T01:58:31.418Z,94.51
2023-04-11T01:59:03.894Z,94.46
2023-04-11T01:59:36.385Z,94.46
2023-04-11T02:00:08.888Z,94.56
2023-04-11T02:00:41.349Z,94.40
2023-04-11T02:01:13.837Z,94.15
2023-04-11T02:01:46.371Z,94.26
2023-04-11T02:02:18.912Z,94.36
2023-04-11T02:02:51.393Z,93.95
2023-04-11T02:03:23.884Z,93.95
2023-04-11T02:03:56.305Z,93.85
2023-04-11T02:04:28.807Z,93.95
2023-04-11T02:05:01.229Z,94.05
2023-04-11T02:05:33.737Z,94.26
2023-04-11T02:06:06.199Z,94.15
2023-04-11T02:06:38.677Z,93.85
2023-04-11T02:07:11.137Z,93.85
2023-04-11T02:07:43.674Z,93.74
2023-04-11T02:08:16.156Z,93.74
2023-04-11T02:08:48.622Z,93.74
2023-04-11T02:09:21.086Z,93.74
2023-04-11T02:09:53.579Z,93.85
2023-04-11T02:10:26.086Z,94.05
2023-04-11T02:10:58.598Z,94.05
2023-04-11T02:11:31.103Z,94.46
2023-04-11T02:12:03.590Z,94.67
2023-04-11T02:12:36.071Z,94.67
2023-04-11T02:13:08.566Z,94.56
2023-04-11T02:13:41.052Z,94.98
2023-04-11T02:14:13.579Z,95.59
2023-04-11T02:14:46.079Z,96.10
2023-04-11T02:15:18.534Z,96.41
2023-04-11T02:15:51.183Z,97.03
2023-04-11T02:16:23.723Z,97.44
2023-04-11T02:16:56.091Z,97.79
2023-04-11T02:17:28.634Z,97.99
2023-04-11T02:18:01.137Z,97.58
2023-04-11T02:18:33.563Z,97.63
2023-04-11T02:19:06.075Z,97.32
2023-04-11T02:19:38.536Z,97.63
2023-04-11T02:20:11.013Z,98.39
2023-04-11T02:20:43.484Z,98.70
2023-04-11T02:21:15.939Z,98.60
2023-04-11T02:21:48.446Z,97.57
2023-04-11T02:22:20.947Z,97.20
2023-04-11T02:22:53.436Z,96.59
2023-04-11T02:23:25.906Z,96.80
2023-04-11T02:23:59.673Z,96.80
2023-04-11T02:24:30.883Z,97.05
2023-04-11T02:25:03.378Z,97.25
2023-04-11T02:25:35.890Z,97.56
2023-04-11T02:26:08.363Z,97.77
2023-04-11T02:26:40.834Z,97.77
2023-04-11T02:27:13.324Z,98.07
2023-04-11T02:27:45.784Z,98.07
2023-04-11T02:28:18.300Z,98.38
2023-04-11T02:28:50.784Z,98.49
2023-04-11T02:29:23.266Z,98.59
2023-04-11T02:29:55.756Z,98.69
2023-04-11T02:30:28.317Z,98.59
2023-04-11T02:31:00.868Z,98.38
2023-04-11T02:31:33.421Z,98.59
2023-04-11T02:32:05.875Z,98.74
2023-04-11T02:32:38.372Z,98.59
2023-04-11T02:33:10.857Z,98.53
2023-04-11T02:33:43.322Z,98.79
2023-04-11T02:34:15.812Z,99.00
2023-04-11T02:34:48.299Z,99.21
2023-04-11T02:35:20.777Z,99.10
2023-04-11T02:35:53.301Z,99.31
2023-04-11T02:36:25.744Z,99.56
2023-04-11T02:36:58.220Z,99.72
2023-04-11T02:37:30.702Z,99.72
2023-04-11T02:38:03.229Z,99.93
2023-04-11T02:38:35.705Z,99.93
2023-04-11T02:39:08.174Z,99.93
2023-04-11T02:39:40.692Z,99.93
2023-04-11T02:40:13.232Z,99.99
2023-04-11T02:40:45.725Z,99.99
2023-04-11T02:41:18.206Z,99.99
2023-04-11T02:41:50.721Z,99.99
2023-04-11T02:42:23.242Z,99.99
2023-04-11T02:42:55.724Z,99.99
2023-04-11T02:43:28.253Z,99.99
2023-04-11T02:44:00.731Z,99.99
2023-04-11T02:44:33.280Z,99.99
2023-04-11T02:45:05.787Z,99.99
2023-04-11T02:45:38.248Z,99.99
2023-04-11T02:46:13.375Z,99.99
2023-04-11T02:46:43.264Z,99.99
2023-04-11T02:47:15.744Z,99.99
2023-04-11T02:47:48.194Z,99.99
2023-04-11T02:48:20.652Z,99.99
2023-04-11T02:48:53.283Z,99.99
2023-04-11T02:49:25.695Z,99.99
2023-04-11T02:49:58.190Z,99.99
2023-04-11T02:50:30.693Z,99.99
2023-04-11T02:51:03.177Z,99.99
2023-04-11T02:51:35.673Z,99.99
2023-04-11T02:52:08.192Z,99.99
2023-04-11T02:52:40.669Z,99.99
2023-04-11T02:53:13.190Z,99.99
2023-04-11T02:53:45.647Z,99.99
2023-04-11T02:54:18.122Z,99.99
2023-04-11T02:54:50.636Z,99.99
2023-04-11T02:55:23.250Z,99.99
2023-04-11T02:55:55.727Z,99.99
2023-04-11T02:56:28.219Z,99.99
2023-04-11T02:57:00.694Z,99.99
2023-04-11T02:57:33.175Z,99.99
2023-04-11T02:58:05.646Z,99.99
2023-04-11T02:58:38.170Z,99.99
2023-04-11T02:59:10.649Z,99.99
2023-04-11T02:59:43.160Z,99.99
2023-04-11T03:00:15.620Z,99.99
2023-04-11T03:00:48.124Z,99.99
2023-04-11T03:01:20.649Z,99.99
2023-04-11T03:01:53.256Z,99.99
2023-04-11T03:02:25.815Z,99.99
2023-04-11T03:02:58.157Z,99.98
2023-04-11T03:03:30.690Z,99.88
2023-04-11T03:04:03.182Z,99.98
2023-04-11T03:04:35.752Z,99.98
2023-04-11T03:05:08.123Z,99.98
2023-04-11T03:05:40.593Z,99.98
2023-04-11T03:06:13.053Z,99.77
2023-04-11T03:06:45.523Z,99.77
2023-04-11T03:07:17.994Z,99.98
2023-04-11T03:07:50.474Z,99.98
2023-04-11T03:08:22.947Z,99.99
2023-04-11T03:08:55.553Z,99.99
2023-04-11T03:09:27.921Z,99.99
2023-04-11T03:10:00.314Z,99.99
2023-04-11T03:10:32.795Z,99.99
2023-04-11T03:11:05.245Z,99.99
2023-04-11T03:11:37.771Z,99.98
2023-04-11T03:12:10.260Z,99.57
2023-04-11T03:12:42.718Z,99.47
2023-04-11T03:13:15.175Z,99.57
2023-04-11T03:13:47.662Z,99.67
2023-04-11T03:14:20.120Z,99.67
2023-04-11T03:14:52.601Z,99.67
2023-04-11T03:15:25.087Z,99.77
2023-04-11T03:15:57.648Z,99.77
2023-04-11T03:16:30.165Z,99.98
2023-04-11T03:17:02.559Z,99.98
2023-04-11T03:17:35.097Z,99.98
2023-04-11T03:18:07.579Z,99.98
2023-04-11T03:18:40.072Z,99.88
2023-04-11T03:19:12.575Z,99.37
2023-04-11T03:19:45.077Z,99.26
2023-04-11T03:20:17.598Z,99.37
2023-04-11T03:20:50.074Z,99.26
2023-04-11T03:21:22.583Z,99.16
2023-04-11T03:21:55.042Z,99.26
2023-04-11T03:22:27.529Z,99.26
2023-04-11T03:23:00.012Z,99.31
2023-04-11T03:23:32.493Z,99.10
2023-04-11T03:24:04.960Z,99.21
2023-04-11T03:24:37.451Z,98.90
2023-04-11T03:25:09.954Z,98.79
2023-04-11T03:25:42.457Z,98.38
2023-04-11T03:26:14.918Z,98.18
2023-04-11T03:26:47.418Z,98.18
2023-04-11T03:27:19.913Z,98.28
2023-04-11T03:27:52.385Z,98.38
2023-04-11T03:28:24.911Z,98.59
2023-04-11T03:28:57.625Z,98.69
2023-04-11T03:29:29.888Z,98.38
2023-04-11T03:30:02.388Z,98.28
2023-04-11T03:30:34.841Z,98.07
2023-04-11T03:31:07.375Z,97.87
2023-04-11T03:31:39.867Z,97.77
2023-04-11T03:32:12.354Z,97.77
2023-04-11T03:32:44.895Z,97.87
2023-04-11T03:33:17.338Z,97.56
2023-04-11T03:33:49.855Z,97.36
2023-04-11T03:34:22.298Z,97.36
2023-04-11T03:34:54.789Z,97.25
2023-04-11T03:35:27.283Z,97.36
2023-04-11T03:35:59.759Z,97.56
2023-04-11T03:36:32.227Z,97.56
2023-04-11T03:37:04.713Z,97.36
2023-04-11T03:37:37.174Z,97.56
2023-04-11T03:38:09.662Z,97.77
2023-04-11T03:38:42.201Z,97.66
2023-04-11T03:39:14.685Z,97.66
2023-04-11T03:39:47.167Z,97.77
2023-04-11T03:40:19.662Z,97.56
2023-04-11T03:40:52.157Z,97.56
2023-04-11T03:41:24.650Z,97.66
2023-04-11T03:41:57.155Z,97.66
2023-04-11T03:42:29.631Z,97.77
2023-04-11T03:43:03.817Z,97.87
2023-04-11T03:43:34.560Z,97.97
2023-04-11T03:44:07.054Z,97.87
2023-04-11T03:44:39.528Z,97.77
2023-04-11T03:45:12.037Z,97.77
2023-04-11T03:45:44.493Z,97.61
2023-04-11T03:46:17.003Z,97.45
2023-04-11T03:46:49.489Z,97.71
2023-04-11T03:47:21.968Z,97.81
2023-04-11T03:47:54.478Z,98.02
2023-04-11T03:48:26.943Z,97.81
2023-04-11T03:48:59.430Z,97.71
2023-04-11T03:49:31.930Z,97.61
2023-04-11T03:50:04.417Z,97.56
2023-04-11T03:50:36.912Z,97.56
2023-04-11T03:51:09.417Z,97.45
2023-04-11T03:51:41.936Z,97.25
2023-04-11T03:52:14.438Z,97.25
2023-04-11T03:52:46.917Z,97.36
2023-04-11T03:53:19.460Z,97.36
2023-04-11T03:53:51.928Z,97.45
2023-04-11T03:54:24.405Z,97.66
2023-04-11T03:54:56.903Z,97.77
2023-04-11T03:55:29.372Z,97.66
2023-04-11T03:56:01.908Z,97.56
2023-04-11T03:56:34.370Z,97.66
2023-04-11T03:57:06.906Z,97.56
2023-04-11T03:57:39.377Z,97.66
2023-04-11T03:58:11.880Z,97.77
2023-04-11T03:58:44.325Z,97.45
2023-04-11T03:59:16.851Z,97.56
2023-04-11T03:59:49.323Z,97.87
2023-04-11T04:00:21.822Z,98.18
2023-04-11T04:00:54.307Z,98.07
2023-04-11T04:01:26.766Z,98.07
2023-04-11T04:01:59.328Z,97.66
2023-04-11T04:02:31.926Z,97.36
2023-04-11T04:03:04.476Z,97.36
2023-04-11T04:03:37.058Z,97.36
2023-04-11T04:04:09.417Z,97.45
2023-04-11T04:04:41.914Z,97.66
2023-04-11T04:05:14.322Z,97.45
2023-04-11T04:05:46.783Z,97.25
2023-04-11T04:06:19.218Z,97.05
2023-04-11T04:06:51.785Z,97.15
2023-04-11T04:07:24.283Z,97.45
2023-04-11T04:07:56.811Z,97.45
2023-04-11T04:08:29.340Z,97.36
2023-04-11T04:09:01.940Z,97.15
2023-04-11T04:09:34.458Z,97.05
2023-04-11T04:10:06.978Z,96.73
2023-04-11T04:10:39.601Z,96.64
2023-04-11T04:11:12.125Z,96.64
2023-04-11T04:11:44.587Z,96.73
2023-04-11T04:12:17.075Z,96.94
2023-04-11T04:12:49.554Z,97.15
2023-04-11T04:13:22.055Z,96.94
2023-04-11T04:13:54.787Z,96.43
2023-04-11T04:14:27.006Z,96.64
2023-04-11T04:14:59.500Z,96.53
2023-04-11T04:15:32.020Z,96.53
2023-04-11T04:16:04.538Z,96.73
2023-04-11T04:16:36.999Z,96.84
2023-04-11T04:17:16.517Z,96.02
2023-04-11T04:17:49.054Z,95.71
2023-04-11T04:18:21.487Z,95.81
2023-04-11T04:18:53.957Z,95.92
2023-04-11T04:19:26.444Z,95.81
2023-04-11T04:19:58.954Z,95.81
2023-04-11T04:20:31.486Z,95.71
2023-04-11T04:21:03.978Z,95.81
2023-04-11T04:21:36.456Z,95.50
2023-04-11T04:22:08.914Z,95.25
2023-04-11T04:22:41.392Z,95.30
2023-04-11T04:23:13.875Z,95.36
2023-04-11T04:23:46.386Z,95.30
2023-04-11T04:24:18.865Z,95.15
2023-04-11T04:24:51.352Z,95.20
2023-04-11T04:25:25.523Z,94.89
2023-04-11T04:25:56.327Z,94.54
2023-04-11T04:26:28.788Z,94.64
2023-04-11T04:27:01.293Z,94.48
2023-04-11T04:27:33.745Z,94.64
2023-04-11T04:28:06.250Z,94.99
2023-04-11T04:28:38.717Z,94.84
2023-04-11T04:29:11.227Z,94.37
2023-04-11T04:29:43.703Z,94.23
2023-04-11T04:30:16.210Z,94.43
2023-04-11T04:30:48.700Z,94.84
2023-04-11T04:31:21.235Z,94.43
2023-04-11T04:31:53.776Z,94.74
2023-04-11T04:32:26.277Z,94.84
2023-04-11T04:32:58.824Z,94.74
2023-04-11T04:33:31.236Z,94.95
2023-04-11T04:34:03.732Z,95.05
2023-04-11T04:34:36.201Z,95.05
2023-04-11T04:35:08.680Z,95.05
2023-04-11T04:35:41.160Z,95.15
2023-04-11T04:36:13.647Z,95.56
2023-04-11T04:36:46.139Z,95.25
2023-04-11T04:37:18.619Z,95.50
2023-04-11T04:37:51.094Z,95.81
2023-04-11T04:38:23.569Z,95.92
2023-04-11T04:38:56.075Z,95.81
2023-04-11T04:39:28.567Z,95.81
2023-04-11T04:40:01.048Z,96.22
2023-04-11T04:40:33.523Z,95.30
2023-04-11T04:41:06.051Z,94.68
2023-04-11T04:41:38.538Z,94.78
2023-04-11T04:42:11.077Z,94.78
2023-04-11T04:42:43.562Z,95.30
2023-04-11T04:43:16.050Z,95.40
2023-04-11T04:43:48.547Z,95.09
2023-04-11T04:44:21.024Z,95.40
2023-04-11T04:44:53.538Z,95.40
2023-04-11T04:45:26.001Z,95.50
2023-04-11T04:45:58.617Z,95.61
2023-04-11T04:46:30.973Z,95.71
2023-04-11T04:47:03.456Z,95.92
2023-04-11T04:47:35.942Z,95.81
2023-04-11T04:48:08.518Z,96.02
2023-04-11T04:48:40.922Z,96.12
2023-04-11T04:49:13.408Z,96.12
2023-04-11T04:49:45.929Z,95.71
2023-04-11T04:50:18.377Z,95.92
2023-04-11T04:50:50.885Z,96.02
2023-04-11T04:51:23.387Z,95.34
2023-04-11T04:51:55.899Z,95.03
2023-04-11T04:52:28.378Z,95.34
2023-04-11T04:53:00.828Z,94.93
2023-04-11T04:53:33.304Z,94.73
2023-04-11T04:54:05.787Z,94.62
2023-04-11T04:54:38.353Z,94.73
2023-04-11T04:55:10.869Z,95.08
2023-04-11T04:55:43.397Z,95.39
2023-04-11T04:56:15.855Z,95.59
2023-04-11T04:56:48.403Z,95.59
2023-04-11T04:57:20.827Z,95.39
2023-04-11T04:57:53.319Z,95.70
2023-04-11T04:58:25.793Z,96.11
2023-04-11T04:58:58.312Z,96.11
2023-04-11T04:59:30.772Z,96.21
2023-04-11T05:00:03.286Z,96.42
2023-04-11T05:00:35.762Z,96.11
2023-04-11T05:01:08.308Z,96.21
2023-04-11T05:01:40.832Z,96.21
2023-04-11T05:02:13.321Z,96.21
2023-04-11T05:02:45.823Z,95.59
2023-04-11T05:03:18.296Z,95.28
2023-04-11T05:03:50.764Z,95.33
2023-04-11T05:04:23.316Z,95.43
2023-04-11T05:04:55.595Z,94.92
2023-04-11T05:05:28.068Z,94.71
2023-04-11T05:06:00.562Z,94.51
2023-04-11T05:06:33.065Z,94.40
2023-04-11T05:07:05.569Z,94.65
2023-04-11T05:07:38.018Z,95.06
2023-04-11T05:08:10.512Z,94.76
2023-04-11T05:08:43.006Z,94.96
2023-04-11T05:09:15.506Z,94.96
2023-04-11T05:09:48.034Z,94.96
2023-04-11T05:10:20.541Z,94.65
2023-04-11T05:10:53.033Z,94.45
2023-04-11T05:11:25.516Z,94.96
2023-04-11T05:11:58.012Z,94.90
2023-04-11T05:12:30.535Z,95.00
2023-04-11T05:13:03.029Z,93.98
2023-04-11T05:13:35.506Z,94.59
2023-04-11T05:14:08.011Z,95.21
2023-04-11T05:14:40.493Z,95.62
2023-04-11T05:15:13.003Z,95.93
2023-04-11T05:15:45.509Z,96.03
2023-04-11T05:16:18.075Z,95.73
2023-04-11T05:16:50.495Z,96.24
2023-04-11T05:17:24.705Z,96.96
2023-04-11T05:17:55.527Z,97.27
2023-04-11T05:18:27.920Z,97.63
2023-04-11T05:19:00.430Z,97.83
2023-04-11T05:19:32.880Z,97.73
2023-04-11T05:20:05.378Z,97.42
2023-04-11T05:20:37.912Z,97.63
2023-04-11T05:21:10.410Z,97.73
2023-04-11T05:21:42.890Z,98.08
2023-04-11T05:22:15.386Z,98.29
2023-04-11T05:22:48.226Z,98.29
2023-04-11T05:23:20.435Z,97.88
2023-04-11T05:23:52.943Z,97.82
2023-04-11T05:24:25.437Z,98.13
2023-04-11T05:24:57.942Z,98.38
2023-04-11T05:25:30.404Z,98.18
2023-04-11T05:26:02.878Z,98.49
2023-04-11T05:26:35.339Z,99.00
2023-04-11T05:27:07.853Z,99.35
2023-04-11T05:27:40.364Z,99.66
2023-04-11T05:28:12.850Z,99.87
2023-04-11T05:28:45.338Z,99.99
2023-04-11T05:29:17.898Z,99.99
2023-04-11T05:29:50.438Z,99.99
2023-04-11T05:30:22.956Z,99.99
2023-04-11T05:30:55.442Z,99.99
2023-04-11T05:31:27.908Z,99.99
2023-04-11T05:32:00.385Z,99.99
2023-04-11T05:32:32.928Z,99.99
2023-04-11T05:33:05.395Z,99.99
2023-04-11T05:33:37.857Z,99.99
2023-04-11T05:34:10.347Z,99.99
2023-04-11T05:34:42.825Z,99.99
2023-04-11T05:35:15.357Z,99.99
2023-04-11T05:35:47.891Z,99.99
2023-04-11T05:36:20.291Z,99.99
2023-04-11T05:36:52.774Z,99.99
2023-04-11T05:37:25.253Z,99.99
2023-04-11T05:37:57.774Z,99.99
2023-04-11T05:38:30.258Z,99.99
2023-04-11T05:39:02.752Z,99.99
2023-04-11T05:39:35.258Z,99.99
2023-04-11T05:40:07.776Z,99.99
2023-04-11T05:40:40.269Z,99.99
2023-04-11T05:41:12.767Z,99.99
2023-04-11T05:41:45.235Z,99.99
2023-04-11T05:42:17.753Z,99.99
2023-04-11T05:42:50.221Z,99.99
2023-04-11T05:43:22.715Z,99.99
2023-04-11T05:43:55.455Z,99.99
2023-04-11T05:44:27.647Z,99.99
2023-04-11T05:45:00.213Z,99.99
2023-04-11T05:45:32.652Z,99.99
2023-04-11T05:46:05.145Z,99.99
2023-04-11T05:46:37.601Z,99.99
2023-04-11T05:47:10.044Z,99.99
2023-04-11T05:47:42.527Z,99.99
2023-04-11T05:48:16.038Z,99.99
2023-04-11T05:48:47.483Z,99.99
2023-04-11T05:49:20.101Z,99.99
2023-04-11T05:49:52.614Z,99.99
2023-04-11T05:50:25.105Z,99.99
2023-04-11T05:50:57.617Z,99.99
2023-04-11T05:51:30.083Z,99.99
2023-04-11T05:52:02.587Z,99.99
2023-04-11T05:52:35.062Z,99.99
2023-04-11T05:53:07.540Z,99.99
2023-04-11T05:53:40.009Z,99.99
2023-04-11T05:54:12.469Z,99.99
2023-04-11T05:54:44.991Z,99.99
2023-04-11T05:55:17.556Z,99.99
2023-04-11T05:55:50.037Z,99.99
2023-04-11T05:56:22.560Z,99.99
2023-04-11T05:56:55.093Z,99.99
2023-04-11T05:57:27.594Z,99.99
2023-04-11T05:58:00.105Z,99.99
2023-04-11T05:58:32.591Z,99.99
2023-04-11T05:59:05.071Z,99.99
2023-04-11T05:59:37.555Z,99.99
2023-04-11T06:00:10.098Z,99.99
2023-04-11T06:00:42.593Z,99.99
2023-04-11T06:01:15.123Z,99.99
2023-04-11T06:01:47.641Z,99.99
2023-04-11T06:02:20.199Z,99.99
2023-04-11T06:02:52.636Z,99.99
2023-04-11T06:03:25.171Z,99.99
2023-04-11T06:03:58.153Z,99.99
2023-04-11T06:04:30.102Z,99.99
2023-04-11T06:05:02.547Z,99.99
2023-04-11T06:05:35.035Z,99.99
2023-04-11T06:06:07.483Z,99.99
2023-04-11T06:06:39.960Z,99.99
2023-04-11T06:07:12.456Z,99.99
2023-04-11T06:07:44.939Z,99.99
2023-04-11T06:08:17.423Z,99.99
2023-04-11T06:08:49.914Z,99.99
2023-04-11T06:09:22.374Z,99.99
2023-04-11T06:09:54.844Z,99.99
2023-04-11T06:10:27.355Z,99.99
2023-04-11T06:10:59.856Z,99.99
2023-04-11T06:11:32.328Z,99.99
2023-04-11T06:12:04.798Z,99.99
2023-04-11T06:12:37.284Z,99.99
2023-04-11T06:13:09.783Z,99.99
2023-04-11T06:13:42.301Z,99.99
2023-04-11T06:14:14.764Z,99.99
2023-04-11T06:14:47.258Z,99.99
2023-04-11T06:15:19.723Z,99.99
2023-04-11T06:15:52.272Z,99.99
2023-04-11T06:16:24.791Z,99.99
2023-04-11T06:16:57.176Z,99.99
2023-04-11T06:17:29.709Z,99.99
2023-04-11T06:18:02.196Z,99.99
2023-04-11T06:18:34.617Z,99.99
2023-04-11T06:19:07.109Z,99.99
2023-04-11T06:19:39.585Z,99.99
2023-04-11T06:20:12.082Z,99.99
2023-04-11T06:20:44.564Z,99.99
2023-04-11T06:21:17.056Z,99.99
2023-04-11T06:21:49.538Z,99.99
2023-04-11T06:22:21.992Z,99.99
2023-04-11T06:22:54.457Z,99.99
2023-04-11T06:23:26.957Z,99.99
2023-04-11T06:23:59.477Z,99.99
2023-04-11T06:24:31.967Z,99.99
2023-04-11T06:25:04.445Z,99.99
2023-04-11T06:25:36.900Z,99.99
2023-04-11T06:26:11.323Z,99.99
2023-04-11T06:26:41.867Z,99.99
2023-04-11T06:27:14.373Z,99.99
2023-04-11T06:27:46.875Z,99.99
2023-04-11T06:28:19.373Z,99.99
2023-04-11T06:28:51.874Z,99.99
2023-04-11T06:29:24.352Z,99.99
2023-04-11T06:29:56.843Z,99.99
2023-04-11T06:30:29.365Z,99.99
2023-04-11T06:31:01.867Z,99.99
2023-04-11T06:31:34.378Z,99.99
2023-04-11T06:32:06.741Z,99.99
2023-04-11T06:32:39.270Z,99.99
2023-04-11T06:33:11.840Z,99.99
2023-04-11T06:33:44.200Z,99.99
2023-04-11T06:34:16.706Z,99.99
2023-04-11T06:34:49.266Z,99.99
2023-04-11T06:35:21.736Z,99.99
2023-04-11T06:35:54.262Z,99.99
2023-04-11T06:36:26.753Z,99.99
2023-04-11T06:36:59.233Z,99.99
2023-04-11T06:37:31.721Z,99.99
2023-04-11T06:38:04.189Z,99.82
2023-04-11T06:38:36.694Z,99.57
2023-04-11T06:39:09.134Z,98.85
2023-04-11T06:39:41.636Z,98.13
2023-04-11T06:40:14.144Z,98.44
2023-04-11T06:40:46.628Z,98.24
2023-04-11T06:41:19.133Z,98.13
2023-04-11T06:41:51.634Z,98.24
2023-04-11T06:42:24.126Z,98.44
2023-04-11T06:42:56.580Z,98.13
2023-04-11T06:43:29.053Z,98.18
2023-04-11T06:44:01.566Z,97.97
2023-04-11T06:44:34.064Z,98.38
2023-04-11T06:45:06.520Z,98.07
2023-04-11T06:45:38.987Z,97.97
2023-04-11T06:46:11.505Z,97.45
2023-04-11T06:46:44.014Z,97.77
2023-04-11T06:47:16.439Z,97.97
2023-04-11T06:47:48.955Z,98.07
2023-04-11T06:48:21.412Z,98.38
2023-04-11T06:48:53.880Z,97.66
2023-04-11T06:49:26.392Z,97.05
2023-04-11T06:49:58.923Z,97.15
2023-04-11T06:50:31.434Z,96.73
2023-04-11T06:51:03.934Z,95.92
2023-04-11T06:51:36.373Z,95.92
2023-04-11T06:52:08.823Z,96.22
2023-04-11T06:52:41.303Z,96.43
2023-04-11T06:53:13.819Z,96.53
2023-04-11T06:53:46.247Z,96.73
2023-04-11T06:54:18.757Z,96.73
2023-04-11T06:54:51.258Z,96.84
2023-04-11T06:55:23.766Z,96.94
2023-04-11T06:55:56.268Z,97.25
2023-04-11T06:56:28.775Z,96.84
2023-04-11T06:57:01.298Z,96.43
2023-04-11T06:57:33.762Z,95.61
2023-04-11T06:58:06.219Z,95.40
2023-04-11T06:58:38.714Z,95.30